sensor_id;sensor_type;location;lat;lon;timestamp;P1;durP1;ratioP1;P2;durP2;ratioP2
52043;SDS011;38053;53.100;6.078;2023-07-31T00:02:23;8.27;;;3.30;;
52043;SDS011;38053;53.100;6.078;2023-07-31T00:04:48;9.10;;;3.03;;
52043;SDS011;38053;53.100;6.078;2023-07-31T00:07:14;10.15;;;3.45;;
52043;SDS011;38053;53.100;6.078;2023-07-31T00:09:40;14.50;;;3.80;;
52043;SDS011;38053;53.100;6.078;2023-07-31T00:12:06;8.98;;;3.10;;
52043;SDS011;38053;53.100;6.078;2023-07-31T00:14:32;12.73;;;3.65;;
52043;SDS011;38053;53.100;6.078;2023-07-31T00:16:57;16.15;;;4.82;;
52043;SDS011;38053;53.100;6.078;2023-07-31T00:19:23;11.57;;;3.67;;
52043;SDS011;38053;53.100;6.078;2023-07-31T00:21:49;8.27;;;3.10;;
52043;SDS011;38053;53.100;6.078;2023-07-31T00:24:14;11.50;;;2.83;;
52043;SDS011;38053;53.100;6.078;2023-07-31T00:26:40;9.20;;;3.13;;
52043;SDS011;38053;53.100;6.078;2023-07-31T00:29:06;8.07;;;2.88;;
52043;SDS011;38053;53.100;6.078;2023-07-31T00:31:31;8.15;;;3.35;;
52043;SDS011;38053;53.100;6.078;2023-07-31T00:33:57;11.98;;;3.50;;
52043;SDS011;38053;53.100;6.078;2023-07-31T00:36:23;10.90;;;3.47;;
52043;SDS011;38053;53.100;6.078;2023-07-31T00:38:48;9.15;;;4.07;;
52043;SDS011;38053;53.100;6.078;2023-07-31T00:41:14;13.73;;;4.65;;
52043;SDS011;38053;53.100;6.078;2023-07-31T00:43:40;11.90;;;4.43;;
52043;SDS011;38053;53.100;6.078;2023-07-31T00:46:06;9.10;;;4.05;;
52043;SDS011;38053;53.100;6.078;2023-07-31T00:48:32;15.25;;;4.53;;
52043;SDS011;38053;53.100;6.078;2023-07-31T00:51:01;13.73;;;3.80;;
52043;SDS011;38053;53.100;6.078;2023-07-31T00:53:27;10.02;;;3.50;;
52043;SDS011;38053;53.100;6.078;2023-07-31T00:55:53;11.32;;;3.22;;
52043;SDS011;38053;53.100;6.078;2023-07-31T00:58:19;10.07;;;3.17;;
52043;SDS011;38053;53.100;6.078;2023-07-31T01:00:45;12.20;;;3.97;;
52043;SDS011;38053;53.100;6.078;2023-07-31T01:03:11;9.18;;;3.30;;
52043;SDS011;38053;53.100;6.078;2023-07-31T01:05:49;14.07;;;3.53;;
52043;SDS011;38053;53.100;6.078;2023-07-31T01:08:27;11.45;;;2.55;;
52043;SDS011;38053;53.100;6.078;2023-07-31T01:11:04;12.20;;;2.72;;
52043;SDS011;38053;53.100;6.078;2023-07-31T01:13:44;9.18;;;2.95;;
52043;SDS011;38053;53.100;6.078;2023-07-31T01:16:11;6.72;;;2.30;;
52043;SDS011;38053;53.100;6.078;2023-07-31T01:18:37;6.65;;;2.08;;
52043;SDS011;38053;53.100;6.078;2023-07-31T01:21:18;7.07;;;2.50;;
52043;SDS011;38053;53.100;6.078;2023-07-31T01:24:14;5.15;;;2.47;;
52043;SDS011;38053;53.100;6.078;2023-07-31T01:26:47;5.57;;;2.17;;
52043;SDS011;38053;53.100;6.078;2023-07-31T01:29:36;8.82;;;2.88;;
52043;SDS011;38053;53.100;6.078;2023-07-31T01:32:08;7.22;;;2.85;;
52043;SDS011;38053;53.100;6.078;2023-07-31T01:34:36;9.25;;;2.20;;
52043;SDS011;38053;53.100;6.078;2023-07-31T01:37:02;8.60;;;2.22;;
52043;SDS011;38053;53.100;6.078;2023-07-31T01:39:28;7.97;;;2.55;;
52043;SDS011;38053;53.100;6.078;2023-07-31T01:41:54;7.00;;;2.78;;
52043;SDS011;38053;53.100;6.078;2023-07-31T01:44:20;5.63;;;2.35;;
52043;SDS011;38053;53.100;6.078;2023-07-31T01:46:45;4.70;;;2.53;;
52043;SDS011;38053;53.100;6.078;2023-07-31T01:49:11;5.43;;;2.30;;
52043;SDS011;38053;53.100;6.078;2023-07-31T01:51:37;7.68;;;2.60;;
52043;SDS011;38053;53.100;6.078;2023-07-31T01:54:02;13.40;;;3.15;;
52043;SDS011;38053;53.100;6.078;2023-07-31T01:56:28;7.30;;;2.40;;
52043;SDS011;38053;53.100;6.078;2023-07-31T01:58:54;7.03;;;2.83;;
52043;SDS011;38053;53.100;6.078;2023-07-31T02:01:20;9.45;;;2.90;;
52043;SDS011;38053;53.100;6.078;2023-07-31T02:03:46;13.93;;;4.13;;
52043;SDS011;38053;53.100;6.078;2023-07-31T02:06:11;12.50;;;3.25;;
52043;SDS011;38053;53.100;6.078;2023-07-31T02:08:37;18.48;;;3.00;;
52043;SDS011;38053;53.100;6.078;2023-07-31T02:11:03;14.38;;;3.28;;
52043;SDS011;38053;53.100;6.078;2023-07-31T02:13:29;9.60;;;2.85;;
52043;SDS011;38053;53.100;6.078;2023-07-31T02:15:55;8.18;;;3.42;;
52043;SDS011;38053;53.100;6.078;2023-07-31T02:18:21;13.63;;;3.15;;
52043;SDS011;38053;53.100;6.078;2023-07-31T02:20:50;12.70;;;3.00;;
52043;SDS011;38053;53.100;6.078;2023-07-31T02:23:20;12.30;;;3.63;;
52043;SDS011;38053;53.100;6.078;2023-07-31T02:25:46;8.88;;;3.08;;
52043;SDS011;38053;53.100;6.078;2023-07-31T02:28:11;14.27;;;3.47;;
52043;SDS011;38053;53.100;6.078;2023-07-31T02:30:37;10.32;;;2.95;;
52043;SDS011;38053;53.100;6.078;2023-07-31T02:33:04;13.27;;;3.35;;
52043;SDS011;38053;53.100;6.078;2023-07-31T02:35:30;8.52;;;3.15;;
52043;SDS011;38053;53.100;6.078;2023-07-31T02:37:56;9.55;;;2.50;;
52043;SDS011;38053;53.100;6.078;2023-07-31T02:40:25;8.02;;;2.55;;
52043;SDS011;38053;53.100;6.078;2023-07-31T02:42:50;10.77;;;3.20;;
52043;SDS011;38053;53.100;6.078;2023-07-31T02:45:16;6.25;;;2.70;;
52043;SDS011;38053;53.100;6.078;2023-07-31T02:47:42;6.35;;;2.53;;
52043;SDS011;38053;53.100;6.078;2023-07-31T02:50:07;9.30;;;3.40;;
52043;SDS011;38053;53.100;6.078;2023-07-31T02:52:33;7.93;;;2.50;;
52043;SDS011;38053;53.100;6.078;2023-07-31T02:54:59;8.57;;;2.83;;
52043;SDS011;38053;53.100;6.078;2023-07-31T02:57:25;13.73;;;2.80;;
52043;SDS011;38053;53.100;6.078;2023-07-31T02:59:50;9.63;;;2.95;;
52043;SDS011;38053;53.100;6.078;2023-07-31T03:02:16;8.18;;;3.05;;
52043;SDS011;38053;53.100;6.078;2023-07-31T03:04:42;12.15;;;3.88;;
52043;SDS011;38053;53.100;6.078;2023-07-31T03:07:07;9.68;;;2.78;;
52043;SDS011;38053;53.100;6.078;2023-07-31T03:09:33;8.23;;;3.17;;
52043;SDS011;38053;53.100;6.078;2023-07-31T03:11:59;11.35;;;2.90;;
52043;SDS011;38053;53.100;6.078;2023-07-31T03:14:24;7.30;;;2.72;;
52043;SDS011;38053;53.100;6.078;2023-07-31T03:16:51;8.52;;;3.33;;
52043;SDS011;38053;53.100;6.078;2023-07-31T03:19:17;8.82;;;2.70;;
52043;SDS011;38053;53.100;6.078;2023-07-31T03:21:43;7.90;;;1.90;;
52043;SDS011;38053;53.100;6.078;2023-07-31T03:24:09;6.55;;;1.70;;
52043;SDS011;38053;53.100;6.078;2023-07-31T03:26:34;4.93;;;2.13;;
52043;SDS011;38053;53.100;6.078;2023-07-31T03:29:01;6.10;;;1.60;;
52043;SDS011;38053;53.100;6.078;2023-07-31T03:31:27;6.70;;;2.10;;
52043;SDS011;38053;53.100;6.078;2023-07-31T03:33:55;4.18;;;1.67;;
52043;SDS011;38053;53.100;6.078;2023-07-31T03:36:21;5.55;;;2.13;;
52043;SDS011;38053;53.100;6.078;2023-07-31T03:38:47;4.97;;;1.73;;
52043;SDS011;38053;53.100;6.078;2023-07-31T03:41:12;8.23;;;2.17;;
52043;SDS011;38053;53.100;6.078;2023-07-31T03:43:38;6.20;;;2.13;;
52043;SDS011;38053;53.100;6.078;2023-07-31T03:46:04;4.32;;;2.05;;
52043;SDS011;38053;53.100;6.078;2023-07-31T03:48:29;7.65;;;2.40;;
52043;SDS011;38053;53.100;6.078;2023-07-31T03:50:55;5.03;;;1.92;;
52043;SDS011;38053;53.100;6.078;2023-07-31T03:53:21;7.03;;;2.13;;
52043;SDS011;38053;53.100;6.078;2023-07-31T03:55:46;4.47;;;2.03;;
52043;SDS011;38053;53.100;6.078;2023-07-31T03:58:12;5.38;;;2.00;;
52043;SDS011;38053;53.100;6.078;2023-07-31T04:00:39;9.02;;;2.05;;
52043;SDS011;38053;53.100;6.078;2023-07-31T04:03:05;11.10;;;2.88;;
52043;SDS011;38053;53.100;6.078;2023-07-31T04:05:31;6.70;;;2.58;;
52043;SDS011;38053;53.100;6.078;2023-07-31T04:07:58;4.82;;;1.80;;
52043;SDS011;38053;53.100;6.078;2023-07-31T04:10:23;9.32;;;2.72;;
52043;SDS011;38053;53.100;6.078;2023-07-31T04:12:49;5.78;;;2.60;;
52043;SDS011;38053;53.100;6.078;2023-07-31T04:15:15;4.78;;;1.80;;
52043;SDS011;38053;53.100;6.078;2023-07-31T04:17:40;4.45;;;1.73;;
52043;SDS011;38053;53.100;6.078;2023-07-31T04:20:07;4.75;;;2.08;;
52043;SDS011;38053;53.100;6.078;2023-07-31T04:22:33;4.00;;;2.40;;
52043;SDS011;38053;53.100;6.078;2023-07-31T04:24:58;5.00;;;2.50;;
52043;SDS011;38053;53.100;6.078;2023-07-31T04:27:24;4.30;;;2.53;;
52043;SDS011;38053;53.100;6.078;2023-07-31T04:29:50;8.18;;;3.05;;
52043;SDS011;38053;53.100;6.078;2023-07-31T04:32:16;4.97;;;2.63;;
52043;SDS011;38053;53.100;6.078;2023-07-31T04:34:42;9.85;;;3.13;;
52043;SDS011;38053;53.100;6.078;2023-07-31T04:37:08;8.63;;;2.72;;
52043;SDS011;38053;53.100;6.078;2023-07-31T04:39:34;7.95;;;3.25;;
52043;SDS011;38053;53.100;6.078;2023-07-31T04:41:59;10.80;;;3.25;;
52043;SDS011;38053;53.100;6.078;2023-07-31T04:44:25;5.72;;;2.63;;
52043;SDS011;38053;53.100;6.078;2023-07-31T04:46:51;8.93;;;3.22;;
52043;SDS011;38053;53.100;6.078;2023-07-31T04:49:17;11.00;;;3.90;;
52043;SDS011;38053;53.100;6.078;2023-07-31T04:51:42;13.40;;;3.97;;
52043;SDS011;38053;53.100;6.078;2023-07-31T04:54:08;15.75;;;4.78;;
52043;SDS011;38053;53.100;6.078;2023-07-31T04:56:34;15.45;;;4.68;;
52043;SDS011;38053;53.100;6.078;2023-07-31T04:58:59;16.05;;;4.60;;
52043;SDS011;38053;53.100;6.078;2023-07-31T05:01:25;10.32;;;3.75;;
52043;SDS011;38053;53.100;6.078;2023-07-31T05:03:51;16.38;;;4.03;;
52043;SDS011;38053;53.100;6.078;2023-07-31T05:06:17;13.07;;;3.38;;
52043;SDS011;38053;53.100;6.078;2023-07-31T05:08:42;10.00;;;3.92;;
52043;SDS011;38053;53.100;6.078;2023-07-31T05:11:08;12.50;;;3.63;;
52043;SDS011;38053;53.100;6.078;2023-07-31T05:13:34;11.63;;;3.42;;
52043;SDS011;38053;53.100;6.078;2023-07-31T05:15:59;8.80;;;3.47;;
52043;SDS011;38053;53.100;6.078;2023-07-31T05:18:25;10.45;;;3.20;;
52043;SDS011;38053;53.100;6.078;2023-07-31T05:20:53;10.20;;;3.85;;
52043;SDS011;38053;53.100;6.078;2023-07-31T05:23:19;13.43;;;4.30;;
52043;SDS011;38053;53.100;6.078;2023-07-31T05:25:45;10.90;;;4.43;;
52043;SDS011;38053;53.100;6.078;2023-07-31T05:28:11;11.65;;;4.68;;
52043;SDS011;38053;53.100;6.078;2023-07-31T05:30:37;18.08;;;5.65;;
52043;SDS011;38053;53.100;6.078;2023-07-31T05:33:03;26.52;;;7.10;;
52043;SDS011;38053;53.100;6.078;2023-07-31T05:35:29;19.52;;;5.05;;
52043;SDS011;38053;53.100;6.078;2023-07-31T05:37:54;21.67;;;7.05;;
52043;SDS011;38053;53.100;6.078;2023-07-31T05:40:20;19.52;;;6.32;;
52043;SDS011;38053;53.100;6.078;2023-07-31T05:42:46;19.55;;;6.97;;
52043;SDS011;38053;53.100;6.078;2023-07-31T05:45:11;27.02;;;8.70;;
52043;SDS011;38053;53.100;6.078;2023-07-31T05:47:38;33.70;;;9.70;;
52043;SDS011;38053;53.100;6.078;2023-07-31T05:50:04;41.25;;;12.13;;
52043;SDS011;38053;53.100;6.078;2023-07-31T05:52:30;43.53;;;11.35;;
52043;SDS011;38053;53.100;6.078;2023-07-31T05:54:56;42.55;;;12.48;;
52043;SDS011;38053;53.100;6.078;2023-07-31T05:57:22;38.78;;;11.98;;
52043;SDS011;38053;53.100;6.078;2023-07-31T05:59:48;28.33;;;12.50;;
52043;SDS011;38053;53.100;6.078;2023-07-31T06:02:13;42.20;;;13.48;;
52043;SDS011;38053;53.100;6.078;2023-07-31T06:04:39;40.22;;;13.18;;
52043;SDS011;38053;53.100;6.078;2023-07-31T06:07:05;39.53;;;14.20;;
52043;SDS011;38053;53.100;6.078;2023-07-31T06:09:31;43.13;;;13.73;;
52043;SDS011;38053;53.100;6.078;2023-07-31T06:11:56;50.38;;;14.55;;
52043;SDS011;38053;53.100;6.078;2023-07-31T06:14:22;46.55;;;12.43;;
52043;SDS011;38053;53.100;6.078;2023-07-31T06:16:48;40.63;;;11.18;;
52043;SDS011;38053;53.100;6.078;2023-07-31T06:19:13;45.45;;;13.00;;
52043;SDS011;38053;53.100;6.078;2023-07-31T06:21:39;41.75;;;11.55;;
52043;SDS011;38053;53.100;6.078;2023-07-31T06:24:07;31.88;;;10.35;;
52043;SDS011;38053;53.100;6.078;2023-07-31T06:26:33;34.28;;;12.93;;
52043;SDS011;38053;53.100;6.078;2023-07-31T06:28:58;41.47;;;11.73;;
52043;SDS011;38053;53.100;6.078;2023-07-31T06:31:24;32.60;;;12.13;;
52043;SDS011;38053;53.100;6.078;2023-07-31T06:33:51;48.00;;;11.60;;
52043;SDS011;38053;53.100;6.078;2023-07-31T06:36:17;33.08;;;10.40;;
52043;SDS011;38053;53.100;6.078;2023-07-31T06:38:43;41.30;;;10.55;;
52043;SDS011;38053;53.100;6.078;2023-07-31T06:41:09;28.75;;;9.23;;
52043;SDS011;38053;53.100;6.078;2023-07-31T06:43:35;31.55;;;10.48;;
52043;SDS011;38053;53.100;6.078;2023-07-31T06:46:05;33.50;;;9.70;;
52043;SDS011;38053;53.100;6.078;2023-07-31T06:48:32;32.17;;;9.32;;
52043;SDS011;38053;53.100;6.078;2023-07-31T06:50:58;32.30;;;11.18;;
52043;SDS011;38053;53.100;6.078;2023-07-31T06:53:24;35.95;;;9.85;;
52043;SDS011;38053;53.100;6.078;2023-07-31T06:55:50;24.50;;;8.10;;
52043;SDS011;38053;53.100;6.078;2023-07-31T06:58:17;26.10;;;7.07;;
52043;SDS011;38053;53.100;6.078;2023-07-31T07:00:42;25.85;;;7.38;;
52043;SDS011;38053;53.100;6.078;2023-07-31T07:03:08;28.33;;;7.07;;
52043;SDS011;38053;53.100;6.078;2023-07-31T07:05:34;17.95;;;6.32;;
52043;SDS011;38053;53.100;6.078;2023-07-31T07:07:59;18.73;;;6.05;;
52043;SDS011;38053;53.100;6.078;2023-07-31T07:10:25;14.60;;;5.40;;
52043;SDS011;38053;53.100;6.078;2023-07-31T07:12:51;17.17;;;5.70;;
52043;SDS011;38053;53.100;6.078;2023-07-31T07:15:18;16.17;;;5.85;;
52043;SDS011;38053;53.100;6.078;2023-07-31T07:17:44;14.43;;;5.78;;
52043;SDS011;38053;53.100;6.078;2023-07-31T07:20:09;13.77;;;4.90;;
52043;SDS011;38053;53.100;6.078;2023-07-31T07:22:35;19.52;;;5.20;;
52043;SDS011;38053;53.100;6.078;2023-07-31T07:25:01;13.25;;;4.80;;
52043;SDS011;38053;53.100;6.078;2023-07-31T07:27:28;10.73;;;4.20;;
52043;SDS011;38053;53.100;6.078;2023-07-31T07:29:53;11.57;;;3.67;;
52043;SDS011;38053;53.100;6.078;2023-07-31T07:32:20;8.13;;;4.10;;
52043;SDS011;38053;53.100;6.078;2023-07-31T07:34:46;5.75;;;2.80;;
52043;SDS011;38053;53.100;6.078;2023-07-31T07:37:13;6.68;;;2.95;;
52043;SDS011;38053;53.100;6.078;2023-07-31T07:39:38;7.75;;;3.08;;
52043;SDS011;38053;53.100;6.078;2023-07-31T07:42:04;4.57;;;1.80;;
52043;SDS011;38053;53.100;6.078;2023-07-31T07:44:30;3.25;;;1.33;;
52043;SDS011;38053;53.100;6.078;2023-07-31T07:46:56;4.53;;;1.13;;
52043;SDS011;38053;53.100;6.078;2023-07-31T07:49:22;4.15;;;1.30;;
52043;SDS011;38053;53.100;6.078;2023-07-31T07:51:48;3.80;;;1.20;;
52043;SDS011;38053;53.100;6.078;2023-07-31T07:54:14;3.05;;;1.20;;
52043;SDS011;38053;53.100;6.078;2023-07-31T07:56:42;4.25;;;1.02;;
52043;SDS011;38053;53.100;6.078;2023-07-31T07:59:08;3.83;;;1.13;;
52043;SDS011;38053;53.100;6.078;2023-07-31T08:01:33;4.25;;;1.10;;
52043;SDS011;38053;53.100;6.078;2023-07-31T08:03:59;3.17;;;1.08;;
52043;SDS011;38053;53.100;6.078;2023-07-31T08:06:25;3.03;;;0.93;;
52043;SDS011;38053;53.100;6.078;2023-07-31T08:08:51;1.83;;;0.88;;
52043;SDS011;38053;53.100;6.078;2023-07-31T08:11:16;2.13;;;1.10;;
52043;SDS011;38053;53.100;6.078;2023-07-31T08:13:42;2.22;;;1.08;;
52043;SDS011;38053;53.100;6.078;2023-07-31T08:16:08;3.63;;;1.10;;
52043;SDS011;38053;53.100;6.078;2023-07-31T08:18:35;4.68;;;0.98;;
52043;SDS011;38053;53.100;6.078;2023-07-31T08:21:03;3.08;;;0.95;;
52043;SDS011;38053;53.100;6.078;2023-07-31T08:23:29;2.47;;;0.95;;
52043;SDS011;38053;53.100;6.078;2023-07-31T08:25:55;1.92;;;0.70;;
52043;SDS011;38053;53.100;6.078;2023-07-31T08:28:21;2.05;;;0.70;;
52043;SDS011;38053;53.100;6.078;2023-07-31T08:30:47;2.25;;;1.13;;
52043;SDS011;38053;53.100;6.078;2023-07-31T08:33:12;2.25;;;0.73;;
52043;SDS011;38053;53.100;6.078;2023-07-31T08:35:38;3.05;;;0.80;;
52043;SDS011;38053;53.100;6.078;2023-07-31T08:38:04;2.28;;;1.00;;
52043;SDS011;38053;53.100;6.078;2023-07-31T08:40:29;2.10;;;0.95;;
52043;SDS011;38053;53.100;6.078;2023-07-31T08:42:55;2.17;;;0.80;;
52043;SDS011;38053;53.100;6.078;2023-07-31T08:45:22;4.22;;;1.38;;
52043;SDS011;38053;53.100;6.078;2023-07-31T08:47:49;4.50;;;0.90;;
52043;SDS011;38053;53.100;6.078;2023-07-31T08:50:16;1.92;;;0.90;;
52043;SDS011;38053;53.100;6.078;2023-07-31T08:52:43;4.20;;;1.10;;
52043;SDS011;38053;53.100;6.078;2023-07-31T08:55:10;1.73;;;0.82;;
52043;SDS011;38053;53.100;6.078;2023-07-31T08:57:37;3.38;;;1.10;;
52043;SDS011;38053;53.100;6.078;2023-07-31T09:00:04;7.57;;;1.52;;
52043;SDS011;38053;53.100;6.078;2023-07-31T09:05:10;3.33;;;1.77;;
52043;SDS011;38053;53.100;6.078;2023-07-31T09:07:36;7.03;;;1.88;;
52043;SDS011;38053;53.100;6.078;2023-07-31T09:10:03;4.60;;;1.45;;
52043;SDS011;38053;53.100;6.078;2023-07-31T09:12:29;5.03;;;2.03;;
52043;SDS011;38053;53.100;6.078;2023-07-31T09:14:59;3.95;;;1.63;;
52043;SDS011;38053;53.100;6.078;2023-07-31T09:17:29;3.25;;;1.38;;
52043;SDS011;38053;53.100;6.078;2023-07-31T09:20:14;4.40;;;1.25;;
52043;SDS011;38053;53.100;6.078;2023-07-31T09:22:41;3.60;;;1.00;;
52043;SDS011;38053;53.100;6.078;2023-07-31T09:30:13;3.22;;;0.88;;
52043;SDS011;38053;53.100;6.078;2023-07-31T09:32:39;1.65;;;0.60;;
52043;SDS011;38053;53.100;6.078;2023-07-31T09:35:18;3.70;;;0.95;;
52043;SDS011;38053;53.100;6.078;2023-07-31T09:37:53;1.80;;;0.70;;
52043;SDS011;38053;53.100;6.078;2023-07-31T09:40:41;3.25;;;0.70;;
52043;SDS011;38053;53.100;6.078;2023-07-31T09:43:08;4.05;;;0.68;;
52043;SDS011;38053;53.100;6.078;2023-07-31T09:45:39;1.23;;;0.45;;
52043;SDS011;38053;53.100;6.078;2023-07-31T09:48:12;3.03;;;1.08;;
52043;SDS011;38053;53.100;6.078;2023-07-31T09:50:43;3.67;;;0.85;;
52043;SDS011;38053;53.100;6.078;2023-07-31T09:53:13;1.17;;;0.47;;
52043;SDS011;38053;53.100;6.078;2023-07-31T09:55:40;2.97;;;1.08;;
52043;SDS011;38053;53.100;6.078;2023-07-31T09:58:11;2.10;;;0.80;;
52043;SDS011;38053;53.100;6.078;2023-07-31T10:00:38;1.85;;;0.80;;
52043;SDS011;38053;53.100;6.078;2023-07-31T10:03:05;0.95;;;0.60;;
52043;SDS011;38053;53.100;6.078;2023-07-31T10:05:35;2.33;;;0.60;;
52043;SDS011;38053;53.100;6.078;2023-07-31T10:08:13;1.23;;;0.50;;
52043;SDS011;38053;53.100;6.078;2023-07-31T10:10:44;2.47;;;1.02;;
52043;SDS011;38053;53.100;6.078;2023-07-31T10:13:11;2.17;;;0.60;;
52043;SDS011;38053;53.100;6.078;2023-07-31T10:15:37;0.60;;;0.50;;
52043;SDS011;38053;53.100;6.078;2023-07-31T10:18:05;0.95;;;0.50;;
52043;SDS011;38053;53.100;6.078;2023-07-31T10:20:32;0.43;;;0.43;;
52043;SDS011;38053;53.100;6.078;2023-07-31T10:22:58;3.95;;;0.80;;
52043;SDS011;38053;53.100;6.078;2023-07-31T10:25:26;1.02;;;0.57;;
52043;SDS011;38053;53.100;6.078;2023-07-31T10:27:52;1.10;;;0.70;;
52043;SDS011;38053;53.100;6.078;2023-07-31T10:30:24;4.20;;;0.90;;
52043;SDS011;38053;53.100;6.078;2023-07-31T10:32:54;1.80;;;0.75;;
52043;SDS011;38053;53.100;6.078;2023-07-31T10:35:20;1.63;;;0.82;;
52043;SDS011;38053;53.100;6.078;2023-07-31T10:37:50;3.10;;;1.27;;
52043;SDS011;38053;53.100;6.078;2023-07-31T10:40:18;4.45;;;1.20;;
52043;SDS011;38053;53.100;6.078;2023-07-31T10:42:52;6.10;;;1.73;;
52043;SDS011;38053;53.100;6.078;2023-07-31T10:45:23;4.63;;;1.70;;
52043;SDS011;38053;53.100;6.078;2023-07-31T10:47:57;3.95;;;1.40;;
52043;SDS011;38053;53.100;6.078;2023-07-31T10:50:56;3.17;;;1.35;;
52043;SDS011;38053;53.100;6.078;2023-07-31T10:53:28;3.38;;;1.02;;
52043;SDS011;38053;53.100;6.078;2023-07-31T10:55:59;4.93;;;1.30;;
52043;SDS011;38053;53.100;6.078;2023-07-31T10:58:25;6.57;;;1.67;;
52043;SDS011;38053;53.100;6.078;2023-07-31T11:00:55;2.70;;;0.90;;
52043;SDS011;38053;53.100;6.078;2023-07-31T11:03:27;3.03;;;1.20;;
52043;SDS011;38053;53.100;6.078;2023-07-31T11:06:05;5.45;;;0.85;;
52043;SDS011;38053;53.100;6.078;2023-07-31T11:08:32;2.95;;;0.90;;
52043;SDS011;38053;53.100;6.078;2023-07-31T11:13:28;5.35;;;1.55;;
52043;SDS011;38053;53.100;6.078;2023-07-31T11:15:59;5.57;;;1.55;;
52043;SDS011;38053;53.100;6.078;2023-07-31T11:18:26;3.28;;;1.73;;
52043;SDS011;38053;53.100;6.078;2023-07-31T11:20:53;4.18;;;1.95;;
52043;SDS011;38053;53.100;6.078;2023-07-31T11:23:19;4.93;;;2.00;;
52043;SDS011;38053;53.100;6.078;2023-07-31T11:25:50;6.25;;;2.15;;
52043;SDS011;38053;53.100;6.078;2023-07-31T11:28:17;8.02;;;1.90;;
52043;SDS011;38053;53.100;6.078;2023-07-31T11:30:45;5.30;;;1.85;;
52043;SDS011;38053;53.100;6.078;2023-07-31T11:33:12;11.77;;;3.03;;
52043;SDS011;38053;53.100;6.078;2023-07-31T11:35:45;4.78;;;1.85;;
52043;SDS011;38053;53.100;6.078;2023-07-31T11:38:29;7.82;;;2.22;;
52043;SDS011;38053;53.100;6.078;2023-07-31T11:41:00;5.70;;;2.20;;
52043;SDS011;38053;53.100;6.078;2023-07-31T11:43:30;9.00;;;2.67;;
52043;SDS011;38053;53.100;6.078;2023-07-31T11:45:57;8.77;;;2.63;;
52043;SDS011;38053;53.100;6.078;2023-07-31T11:48:25;7.55;;;2.67;;
52043;SDS011;38053;53.100;6.078;2023-07-31T11:50:59;10.05;;;3.10;;
52043;SDS011;38053;53.100;6.078;2023-07-31T11:53:35;13.60;;;2.75;;
52043;SDS011;38053;53.100;6.078;2023-07-31T11:56:06;7.85;;;3.00;;
52043;SDS011;38053;53.100;6.078;2023-07-31T11:58:34;9.32;;;3.22;;
52043;SDS011;38053;53.100;6.078;2023-07-31T12:01:01;8.05;;;2.67;;
52043;SDS011;38053;53.100;6.078;2023-07-31T12:03:27;9.18;;;2.97;;
52043;SDS011;38053;53.100;6.078;2023-07-31T12:05:54;9.80;;;2.85;;
52043;SDS011;38053;53.100;6.078;2023-07-31T12:08:23;11.32;;;3.50;;
52043;SDS011;38053;53.100;6.078;2023-07-31T12:10:50;10.27;;;3.47;;
52043;SDS011;38053;53.100;6.078;2023-07-31T12:13:23;12.35;;;3.80;;
52043;SDS011;38053;53.100;6.078;2023-07-31T12:15:55;11.18;;;3.65;;
52043;SDS011;38053;53.100;6.078;2023-07-31T12:18:23;15.25;;;3.95;;
52043;SDS011;38053;53.100;6.078;2023-07-31T12:20:54;19.90;;;4.80;;
52043;SDS011;38053;53.100;6.078;2023-07-31T12:23:23;17.25;;;3.58;;
52043;SDS011;38053;53.100;6.078;2023-07-31T12:28:29;14.23;;;4.22;;
52043;SDS011;38053;53.100;6.078;2023-07-31T12:30:58;16.38;;;3.60;;
52043;SDS011;38053;53.100;6.078;2023-07-31T12:36:00;13.02;;;3.60;;
52043;SDS011;38053;53.100;6.078;2023-07-31T12:38:27;17.60;;;4.57;;
52043;SDS011;38053;53.100;6.078;2023-07-31T12:40:53;16.20;;;3.83;;
52043;SDS011;38053;53.100;6.078;2023-07-31T12:43:19;19.98;;;4.43;;
52043;SDS011;38053;53.100;6.078;2023-07-31T12:45:45;24.20;;;5.28;;
52043;SDS011;38053;53.100;6.078;2023-07-31T12:48:13;17.58;;;4.32;;
52043;SDS011;38053;53.100;6.078;2023-07-31T12:50:38;16.90;;;4.38;;
52043;SDS011;38053;53.100;6.078;2023-07-31T12:53:04;15.15;;;4.25;;
52043;SDS011;38053;53.100;6.078;2023-07-31T12:55:30;10.95;;;3.60;;
52043;SDS011;38053;53.100;6.078;2023-07-31T12:57:59;13.50;;;3.47;;
52043;SDS011;38053;53.100;6.078;2023-07-31T13:00:25;10.68;;;3.47;;
52043;SDS011;38053;53.100;6.078;2023-07-31T13:02:51;10.85;;;4.20;;
52043;SDS011;38053;53.100;6.078;2023-07-31T13:05:17;21.23;;;4.45;;
52043;SDS011;38053;53.100;6.078;2023-07-31T13:07:44;16.67;;;3.80;;
52043;SDS011;38053;53.100;6.078;2023-07-31T13:10:10;12.13;;;3.40;;
52043;SDS011;38053;53.100;6.078;2023-07-31T13:12:39;16.85;;;4.13;;
52043;SDS011;38053;53.100;6.078;2023-07-31T13:15:05;11.63;;;3.92;;
52043;SDS011;38053;53.100;6.078;2023-07-31T13:17:31;12.27;;;3.70;;
52043;SDS011;38053;53.100;6.078;2023-07-31T13:19:57;11.77;;;3.78;;
52043;SDS011;38053;53.100;6.078;2023-07-31T13:22:23;13.80;;;3.67;;
52043;SDS011;38053;53.100;6.078;2023-07-31T13:24:49;12.43;;;3.92;;
52043;SDS011;38053;53.100;6.078;2023-07-31T13:27:16;10.45;;;3.58;;
52043;SDS011;38053;53.100;6.078;2023-07-31T13:29:44;10.77;;;3.25;;
52043;SDS011;38053;53.100;6.078;2023-07-31T13:32:10;11.70;;;3.58;;
52043;SDS011;38053;53.100;6.078;2023-07-31T13:34:36;9.82;;;3.58;;
52043;SDS011;38053;53.100;6.078;2023-07-31T13:37:02;10.98;;;4.25;;
52043;SDS011;38053;53.100;6.078;2023-07-31T13:39:30;10.90;;;3.80;;
52043;SDS011;38053;53.100;6.078;2023-07-31T13:41:57;12.65;;;3.97;;
52043;SDS011;38053;53.100;6.078;2023-07-31T13:44:23;9.80;;;3.53;;
52043;SDS011;38053;53.100;6.078;2023-07-31T13:46:48;12.27;;;4.28;;
52043;SDS011;38053;53.100;6.078;2023-07-31T13:49:14;25.08;;;4.82;;
52043;SDS011;38053;53.100;6.078;2023-07-31T13:51:40;11.95;;;4.88;;
52043;SDS011;38053;53.100;6.078;2023-07-31T13:54:06;26.70;;;5.75;;
52043;SDS011;38053;53.100;6.078;2023-07-31T13:56:32;22.25;;;5.30;;
52043;SDS011;38053;53.100;6.078;2023-07-31T13:58:58;14.50;;;4.88;;
52043;SDS011;38053;53.100;6.078;2023-07-31T14:01:25;15.30;;;5.43;;
52043;SDS011;38053;53.100;6.078;2023-07-31T14:03:51;20.65;;;6.75;;
52043;SDS011;38053;53.100;6.078;2023-07-31T14:06:17;15.93;;;5.82;;
52043;SDS011;38053;53.100;6.078;2023-07-31T14:08:42;22.30;;;6.80;;
52043;SDS011;38053;53.100;6.078;2023-07-31T14:11:08;15.35;;;5.68;;
52043;SDS011;38053;53.100;6.078;2023-07-31T14:13:34;20.75;;;5.95;;
52043;SDS011;38053;53.100;6.078;2023-07-31T14:15:59;16.60;;;5.70;;
52043;SDS011;38053;53.100;6.078;2023-07-31T14:18:25;14.45;;;5.13;;
52043;SDS011;38053;53.100;6.078;2023-07-31T14:20:51;17.73;;;5.00;;
52043;SDS011;38053;53.100;6.078;2023-07-31T14:23:17;13.13;;;5.07;;
52043;SDS011;38053;53.100;6.078;2023-07-31T14:25:44;17.70;;;4.88;;
52043;SDS011;38053;53.100;6.078;2023-07-31T14:28:11;19.98;;;6.80;;
52043;SDS011;38053;53.100;6.078;2023-07-31T14:30:36;16.17;;;5.70;;
52043;SDS011;38053;53.100;6.078;2023-07-31T14:33:02;14.70;;;5.78;;
52043;SDS011;38053;53.100;6.078;2023-07-31T14:35:28;17.77;;;5.57;;
52043;SDS011;38053;53.100;6.078;2023-07-31T14:37:54;23.65;;;6.22;;
52043;SDS011;38053;53.100;6.078;2023-07-31T14:40:20;13.68;;;4.90;;
52043;SDS011;38053;53.100;6.078;2023-07-31T14:42:48;17.77;;;5.90;;
52043;SDS011;38053;53.100;6.078;2023-07-31T14:45:14;16.10;;;5.05;;
52043;SDS011;38053;53.100;6.078;2023-07-31T14:47:40;14.45;;;4.32;;
52043;SDS011;38053;53.100;6.078;2023-07-31T14:50:06;18.40;;;5.13;;
52043;SDS011;38053;53.100;6.078;2023-07-31T14:52:32;17.00;;;4.68;;
52043;SDS011;38053;53.100;6.078;2023-07-31T14:54:57;18.35;;;5.22;;
52043;SDS011;38053;53.100;6.078;2023-07-31T14:57:23;15.43;;;5.00;;